createdAt,value
2022-10-11T00:01:27.774Z,1.95
2022-10-11T00:03:58.229Z,1.67
2022-10-11T00:06:26.969Z,2.03
2022-10-11T00:08:55.332Z,2.03
2022-10-11T00:11:23.420Z,1.75
2022-10-11T00:13:57.257Z,2.08
2022-10-11T00:16:26.077Z,2.03
2022-10-11T00:18:55.042Z,1.90
2022-10-11T00:21:26.308Z,2.10
2022-10-11T00:23:54.110Z,2.00
2022-10-11T00:26:24.211Z,1.95
2022-10-11T00:28:54.399Z,2.22
2022-10-11T00:31:22.903Z,1.67
2022-10-11T00:33:51.271Z,1.77
2022-10-11T00:36:19.832Z,2.17
2022-10-11T00:38:49.166Z,1.67
2022-10-11T00:41:19.143Z,2.15
2022-10-11T00:43:47.753Z,2.63
2022-10-11T00:46:21.777Z,2.10
2022-10-11T00:49:05.366Z,1.92
2022-10-11T00:51:48.928Z,1.83
2022-10-11T00:54:25.593Z,1.67
2022-10-11T00:57:06.724Z,2.75
2022-10-11T00:59:44.473Z,1.63
2022-10-11T01:02:11.854Z,2.83
2022-10-11T01:04:40.707Z,1.75
2022-10-11T01:07:13.362Z,1.90
2022-10-11T01:09:47.452Z,1.77
2022-10-11T01:12:23.463Z,2.30
2022-10-11T01:15:18.661Z,2.15
2022-10-11T01:18:17.948Z,1.88
2022-10-11T01:21:25.459Z,1.90
2022-10-11T01:24:31.738Z,2.15
2022-10-11T01:27:29.342Z,1.88
2022-10-11T01:30:19.261Z,2.35
2022-10-11T01:33:00.090Z,2.35
2022-10-11T01:35:38.872Z,4.07
2022-10-11T01:38:30.103Z,2.05
2022-10-11T01:41:07.710Z,2.35
2022-10-11T01:43:38.515Z,3.20
2022-10-11T01:46:10.505Z,2.58
2022-10-11T01:49:06.661Z,2.35
2022-10-11T01:51:47.326Z,2.35
2022-10-11T01:55:08.121Z,2.88
2022-10-11T01:57:36.399Z,3.00
2022-10-11T02:00:17.551Z,2.00
2022-10-11T02:03:15.855Z,2.60
2022-10-11T02:05:49.300Z,2.78
2022-10-11T02:08:49.174Z,2.40
2022-10-11T02:11:26.763Z,2.95
2022-10-11T02:14:23.781Z,2.60
2022-10-11T02:16:55.314Z,2.72
2022-10-11T02:19:29.474Z,2.25
2022-10-11T02:22:02.355Z,2.55
2022-10-11T02:24:35.010Z,3.05
2022-10-11T02:27:04.121Z,2.50
2022-10-11T02:29:34.866Z,3.05
2022-10-11T02:32:04.254Z,2.42
2022-10-11T02:34:40.145Z,2.92
2022-10-11T02:37:11.977Z,2.33
2022-10-11T02:39:50.170Z,2.92
2022-10-11T02:42:21.538Z,3.15
2022-10-11T02:45:00.825Z,2.60
2022-10-11T02:47:32.881Z,2.45
2022-10-11T02:50:02.148Z,2.28
2022-10-11T02:52:30.562Z,2.63
2022-10-11T02:54:59.658Z,2.92
2022-10-11T02:57:33.231Z,2.08
2022-10-11T03:00:04.560Z,2.13
2022-10-11T03:02:33.370Z,3.45
2022-10-11T03:05:05.051Z,2.30
2022-10-11T03:07:35.752Z,2.88
2022-10-11T03:10:05.674Z,2.53
2022-10-11T03:12:36.571Z,2.75
2022-10-11T03:15:04.601Z,2.85
2022-10-11T03:17:37.283Z,2.70
2022-10-11T03:20:07.765Z,2.58
2022-10-11T03:22:37.087Z,2.13
2022-10-11T03:25:08.239Z,2.90
2022-10-11T03:27:39.914Z,2.67
2022-10-11T03:30:14.193Z,2.75
2022-10-11T03:32:46.616Z,2.78
2022-10-11T03:35:18.338Z,2.13
2022-10-11T03:37:47.754Z,2.50
2022-10-11T03:40:19.326Z,2.97
2022-10-11T03:42:54.484Z,2.55
2022-10-11T03:45:26.244Z,3.45
2022-10-11T03:47:54.944Z,3.03
2022-10-11T03:50:24.877Z,2.47
2022-10-11T03:52:55.666Z,2.95
2022-10-11T03:55:24.013Z,4.25
2022-10-11T03:57:52.856Z,2.70
2022-10-11T04:00:20.287Z,3.20
2022-10-11T04:02:48.439Z,2.85
2022-10-11T04:05:18.161Z,3.03
2022-10-11T04:07:45.765Z,3.03
2022-10-11T04:10:19.830Z,2.90
2022-10-11T04:12:48.439Z,2.95
2022-10-11T04:15:17.452Z,3.08
2022-10-11T04:17:47.942Z,3.50
2022-10-11T04:20:18.332Z,3.05
2022-10-11T04:22:45.838Z,2.83
2022-10-11T04:25:13.804Z,2.80
2022-10-11T04:27:41.249Z,3.40
2022-10-11T04:30:11.355Z,3.20
2022-10-11T04:32:41.551Z,3.38
2022-10-11T04:35:10.253Z,3.25
2022-10-11T04:37:39.325Z,3.28
2022-10-11T04:40:09.228Z,3.80
2022-10-11T04:42:37.960Z,3.28
2022-10-11T04:45:12.397Z,3.20
2022-10-11T04:47:42.894Z,2.95
2022-10-11T04:50:14.604Z,3.25
2022-10-11T04:52:43.718Z,3.22
2022-10-11T04:55:11.726Z,3.47
2022-10-11T04:57:41.641Z,4.15
2022-10-11T05:00:11.523Z,3.58
2022-10-11T05:02:41.344Z,3.80
2022-10-11T05:05:10.485Z,3.95
2022-10-11T05:07:37.946Z,3.47
2022-10-11T05:13:41.043Z,4.72
2022-10-11T05:16:16.011Z,4.07
2022-10-11T05:18:46.140Z,3.42
2022-10-11T05:25:32.760Z,3.22
2022-10-11T05:28:01.840Z,4.47
2022-10-11T05:30:30.768Z,4.32
2022-10-11T05:33:03.917Z,3.38
2022-10-11T05:35:35.279Z,3.95
2022-10-11T05:38:03.579Z,6.45
2022-10-11T05:40:32.945Z,8.65
2022-10-11T05:43:01.582Z,5.95
2022-10-11T05:45:28.915Z,7.05
2022-10-11T05:48:00.827Z,12.00
2022-10-11T05:50:27.995Z,6.00
2022-10-11T05:52:55.994Z,5.85
2022-10-11T05:55:23.405Z,4.05
2022-10-11T05:57:54.636Z,4.40
2022-10-11T06:00:23.891Z,3.72
2022-10-11T06:02:51.112Z,4.00
2022-10-11T06:05:18.519Z,4.35
2022-10-11T06:07:46.281Z,5.22
2022-10-11T06:10:15.958Z,4.22
2022-10-11T06:12:43.911Z,4.35
2022-10-11T06:15:11.362Z,4.80
2022-10-11T06:17:39.232Z,4.95
2022-10-11T06:20:07.101Z,4.28
2022-10-11T06:22:34.840Z,4.18
2022-10-11T06:25:03.074Z,4.60
2022-10-11T06:27:30.375Z,7.22
2022-10-11T06:29:58.614Z,5.03
2022-10-11T06:32:26.205Z,5.22
2022-10-11T06:34:53.507Z,4.88
2022-10-11T06:37:20.695Z,4.53
2022-10-11T06:39:50.101Z,4.35
2022-10-11T06:42:17.443Z,4.05
2022-10-11T06:44:44.836Z,4.57
2022-10-11T06:47:11.965Z,5.43
2022-10-11T06:49:39.736Z,4.15
2022-10-11T06:52:07.121Z,5.13
2022-10-11T06:54:35.269Z,5.47
2022-10-11T06:57:02.792Z,4.35
2022-10-11T06:59:29.906Z,4.85
2022-10-11T07:01:58.211Z,4.13
2022-10-11T07:04:27.727Z,4.78
2022-10-11T07:06:55.123Z,6.22
2022-10-11T07:09:22.540Z,4.70
2022-10-11T07:11:50.467Z,5.50
2022-10-11T07:14:18.030Z,6.43
2022-10-11T07:16:45.234Z,4.80
2022-10-11T07:19:12.797Z,4.47
2022-10-11T07:21:39.997Z,4.72
2022-10-11T07:24:08.384Z,4.40
2022-10-11T07:26:38.513Z,5.32
2022-10-11T07:29:08.275Z,4.38
2022-10-11T07:31:37.909Z,4.82
2022-10-11T07:34:06.080Z,4.93
2022-10-11T07:36:33.305Z,4.38
2022-10-11T07:39:04.342Z,5.25
2022-10-11T07:41:36.498Z,3.92
2022-10-11T07:44:05.031Z,4.28
2022-10-11T07:46:33.623Z,3.63
2022-10-11T07:49:04.334Z,4.25
2022-10-11T07:51:33.214Z,4.28
2022-10-11T07:54:06.163Z,5.00
2022-10-11T07:56:35.337Z,5.38
2022-10-11T07:59:05.789Z,5.15
2022-10-11T08:01:33.507Z,4.03
2022-10-11T08:04:01.500Z,3.72
2022-10-11T08:06:31.867Z,3.50
2022-10-11T08:09:00.613Z,4.00
2022-10-11T08:11:35.115Z,3.78
2022-10-11T08:14:11.084Z,3.80
2022-10-11T08:16:40.757Z,4.22
2022-10-11T08:19:08.070Z,3.28
2022-10-11T08:21:35.274Z,3.70
2022-10-11T08:24:12.332Z,3.25
2022-10-11T08:26:40.079Z,3.72
2022-10-11T08:29:07.413Z,3.38
2022-10-11T08:31:35.248Z,4.70
2022-10-11T08:34:03.053Z,4.05
2022-10-11T08:36:30.237Z,3.80
2022-10-11T08:38:58.192Z,3.42
2022-10-11T08:41:35.735Z,3.00
2022-10-11T08:44:19.065Z,3.40
2022-10-11T08:46:54.764Z,4.53
2022-10-11T08:49:27.061Z,3.58
2022-10-11T08:52:00.406Z,3.40
2022-10-11T08:54:36.964Z,2.45
2022-10-11T08:57:06.003Z,3.08
2022-10-11T08:59:51.556Z,2.25
2022-10-11T09:02:25.509Z,2.80
2022-10-11T09:04:56.323Z,3.00
2022-10-11T09:07:38.404Z,2.47
2022-10-11T09:10:37.797Z,3.17
2022-10-11T09:13:11.535Z,2.90
2022-10-11T09:16:12.046Z,2.80
2022-10-11T09:19:03.708Z,3.20
2022-10-11T09:21:50.601Z,2.70
2022-10-11T09:24:54.416Z,2.75
2022-10-11T09:27:57.821Z,3.38
2022-10-11T09:30:21.529Z,3.55
2022-10-11T09:32:58.048Z,3.75
2022-10-11T09:35:25.311Z,2.42
2022-10-11T09:38:00.800Z,2.85
2022-10-11T09:41:02.121Z,3.20
2022-10-11T09:43:29.431Z,2.28
2022-10-11T09:45:56.754Z,4.28
2022-10-11T09:48:28.173Z,2.95
2022-10-11T09:51:02.147Z,2.47
2022-10-11T09:53:59.546Z,3.03
2022-10-11T09:56:29.303Z,2.33
2022-10-11T09:59:16.175Z,3.58
2022-10-11T10:01:44.651Z,2.70
2022-10-11T10:04:20.317Z,2.67
2022-10-11T10:06:47.549Z,2.80
2022-10-11T10:09:30.272Z,2.95
2022-10-11T10:11:58.564Z,3.60
2022-10-11T10:14:28.365Z,3.88
2022-10-11T10:17:08.909Z,3.42
2022-10-11T10:19:44.973Z,2.22
2022-10-11T10:22:18.751Z,3.30
2022-10-11T10:24:48.009Z,2.50
2022-10-11T10:27:17.075Z,3.00
2022-10-11T10:30:07.887Z,3.42
2022-10-11T10:32:48.703Z,3.15
2022-10-11T10:35:42.695Z,3.50
2022-10-11T10:38:17.518Z,2.88
2022-10-11T10:40:50.973Z,3.63
2022-10-11T10:43:34.408Z,3.17
2022-10-11T10:46:33.523Z,3.05
2022-10-11T10:49:52.473Z,3.28
2022-10-11T10:52:20.797Z,2.40
2022-10-11T10:55:09.639Z,2.42
2022-10-11T10:58:16.351Z,2.33
2022-10-11T11:00:51.281Z,2.95
2022-10-11T11:03:51.645Z,2.65
2022-10-11T11:06:36.762Z,2.45
2022-10-11T11:09:25.569Z,3.03
2022-10-11T11:11:52.665Z,3.03
2022-10-11T11:14:46.938Z,3.25
2022-10-11T11:17:40.468Z,2.75
2022-10-11T11:20:51.656Z,2.55
2022-10-11T11:23:42.508Z,3.10
2022-10-11T11:26:26.297Z,2.10
2022-10-11T11:29:22.625Z,3.03
2022-10-11T11:34:38.771Z,2.97
2022-10-11T11:37:15.508Z,2.50
2022-10-11T11:39:47.412Z,2.45
2022-10-11T11:42:26.446Z,2.65
2022-10-11T11:44:53.749Z,2.65
2022-10-11T11:47:25.353Z,2.35
2022-10-11T11:50:00.227Z,2.45
2022-10-11T11:52:35.976Z,2.20
2022-10-11T11:55:13.507Z,3.40
2022-10-11T11:58:08.063Z,1.95
2022-10-11T12:00:47.030Z,2.80
2022-10-11T12:03:20.929Z,2.60
2022-10-11T12:06:14.765Z,2.40
2022-10-11T12:09:04.137Z,2.30
2022-10-11T12:11:40.727Z,2.55
2022-10-11T12:14:27.441Z,2.00
2022-10-11T12:17:08.594Z,2.55
2022-10-11T12:19:39.780Z,2.58
2022-10-11T12:22:37.823Z,2.10
2022-10-11T12:25:14.963Z,2.40
2022-10-11T12:28:20.471Z,2.42
2022-10-11T12:30:49.206Z,2.70
2022-10-11T12:33:45.372Z,2.78
2022-10-11T12:36:33.829Z,2.15
2022-10-11T12:39:19.514Z,2.25
2022-10-11T12:41:53.902Z,2.47
2022-10-11T12:44:27.199Z,1.90
2022-10-11T12:46:56.447Z,3.60
2022-10-11T12:50:02.390Z,1.83
2022-10-11T12:52:33.722Z,1.88
2022-10-11T12:55:37.897Z,2.75
2022-10-11T12:58:26.104Z,2.22
2022-10-11T13:00:58.237Z,1.70
2022-10-11T13:03:33.762Z,3.13
2022-10-11T13:06:19.129Z,1.63
2022-10-11T13:08:51.844Z,2.22
2022-10-11T13:11:40.302Z,1.95
2022-10-11T13:14:39.929Z,1.67
2022-10-11T13:17:22.045Z,2.42
2022-10-11T13:19:57.453Z,2.05
2022-10-11T13:22:24.730Z,1.98
2022-10-11T13:24:56.040Z,1.40
2022-10-11T13:27:25.620Z,2.03
2022-10-11T13:30:02.399Z,2.40
2022-10-11T13:32:31.280Z,2.20
2022-10-11T13:35:08.426Z,1.92
2022-10-11T13:37:43.630Z,1.80
2022-10-11T13:40:20.549Z,2.58
2022-10-11T13:42:50.205Z,1.92
2022-10-11T13:45:28.102Z,2.20
2022-10-11T13:47:55.905Z,1.73
2022-10-11T13:50:36.991Z,1.70
2022-10-11T13:53:07.215Z,1.55
2022-10-11T13:55:54.983Z,1.50
2022-10-11T13:58:34.746Z,1.95
2022-10-11T14:01:06.023Z,2.75
2022-10-11T14:03:39.273Z,2.10
2022-10-11T14:06:07.002Z,1.63
2022-10-11T14:08:40.262Z,2.55
2022-10-11T14:11:08.624Z,1.58
2022-10-11T14:13:46.759Z,1.80
2022-10-11T14:16:29.566Z,2.03
2022-10-11T14:19:00.113Z,1.70
2022-10-11T14:21:32.938Z,1.60
2022-10-11T14:24:12.729Z,1.33
2022-10-11T14:26:43.144Z,1.90
2022-10-11T14:29:19.816Z,1.77
2022-10-11T14:31:50.990Z,1.90
2022-10-11T14:34:23.814Z,1.58
2022-10-11T14:36:54.170Z,1.27
2022-10-11T14:39:24.882Z,1.65
2022-10-11T14:41:53.123Z,2.15
2022-10-11T14:44:22.825Z,1.50
2022-10-11T14:46:54.116Z,2.10
2022-10-11T14:49:34.667Z,1.80
2022-10-11T14:52:10.148Z,2.08
2022-10-11T14:54:37.379Z,1.73
2022-10-11T14:57:06.215Z,2.03
2022-10-11T14:59:39.355Z,2.28
2022-10-11T15:02:09.224Z,1.65
2022-10-11T15:04:40.657Z,2.17
2022-10-11T15:07:08.681Z,1.80
2022-10-11T15:09:36.973Z,1.80
2022-10-11T15:12:07.681Z,1.92
2022-10-11T15:14:39.507Z,1.85
2022-10-11T15:17:07.043Z,2.47
2022-10-11T15:19:36.435Z,1.83
2022-10-11T15:22:08.462Z,1.48
2022-10-11T15:24:37.060Z,1.85
2022-10-11T15:27:04.408Z,1.52
2022-10-11T15:29:32.154Z,2.08
2022-10-11T15:31:59.906Z,2.25
2022-10-11T15:34:27.554Z,6.45
2022-10-11T15:36:56.329Z,2.50
2022-10-11T15:39:31.543Z,2.00
2022-10-11T15:42:00.237Z,3.03
2022-10-11T15:44:30.215Z,4.15
2022-10-11T15:46:59.943Z,4.78
2022-10-11T15:49:27.971Z,3.08
2022-10-11T15:51:55.933Z,2.80
2022-10-11T15:54:24.353Z,2.15
2022-10-11T15:56:52.824Z,2.35
2022-10-11T15:59:21.714Z,4.40
2022-10-11T16:01:52.094Z,6.60
2022-10-11T16:04:21.159Z,7.65
2022-10-11T16:06:49.559Z,8.15
2022-10-11T16:09:24.485Z,3.30
2022-10-11T16:12:00.155Z,5.10
2022-10-11T16:14:30.301Z,9.82
2022-10-11T16:17:02.978Z,5.35
2022-10-11T16:19:33.159Z,5.22
2022-10-11T16:22:01.566Z,2.83
2022-10-11T16:24:37.298Z,2.55
2022-10-11T16:27:05.195Z,4.82
2022-10-11T16:29:36.085Z,5.75
2022-10-11T16:32:06.074Z,7.38
2022-10-11T16:34:34.238Z,5.60
2022-10-11T16:37:03.999Z,3.45
2022-10-11T16:39:33.816Z,2.72
2022-10-11T16:42:07.629Z,5.47
2022-10-11T16:44:37.915Z,9.05
2022-10-11T16:47:09.366Z,6.55
2022-10-11T16:49:39.397Z,5.38
2022-10-11T16:52:10.913Z,5.88
2022-10-11T16:54:40.125Z,4.43
2022-10-11T16:57:11.695Z,9.68
2022-10-11T16:59:39.634Z,11.15
2022-10-11T17:02:21.651Z,11.45
2022-10-11T17:04:54.258Z,9.88
2022-10-11T17:07:23.713Z,6.20
2022-10-11T17:09:58.676Z,8.07
2022-10-11T17:12:26.047Z,12.48
2022-10-11T17:14:53.760Z,13.60
2022-10-11T17:17:21.502Z,7.95
2022-10-11T17:19:49.106Z,9.27
2022-10-11T17:22:18.364Z,8.02
2022-10-11T17:24:49.754Z,7.20
2022-10-11T17:27:17.002Z,8.40
2022-10-11T17:29:55.872Z,7.65
2022-10-11T17:32:35.744Z,5.05
2022-10-11T17:35:05.641Z,3.58
2022-10-11T17:37:36.338Z,6.38
2022-10-11T17:40:08.313Z,9.98
2022-10-11T17:42:40.586Z,11.27
2022-10-11T17:45:08.069Z,7.40
2022-10-11T17:48:17.728Z,11.95
2022-10-11T17:50:57.955Z,15.10
2022-10-11T17:53:29.366Z,12.45
2022-10-11T17:56:11.363Z,10.45
2022-10-11T17:58:47.527Z,5.95
2022-10-11T18:01:27.073Z,4.57
2022-10-11T18:06:48.979Z,4.50
2022-10-11T18:09:26.921Z,9.65
2022-10-11T18:17:34.875Z,9.15
2022-10-11T18:20:05.677Z,14.35
2022-10-11T18:22:38.367Z,13.55
2022-10-11T18:25:12.541Z,16.95
2022-10-11T18:27:46.483Z,11.20
2022-10-11T18:32:59.845Z,12.13
2022-10-11T18:35:30.853Z,13.73
2022-10-11T18:38:01.000Z,11.40
2022-10-11T18:40:35.748Z,7.95
2022-10-11T18:45:54.214Z,12.70
2022-10-11T18:48:31.018Z,12.00
2022-10-11T18:51:08.325Z,9.68
2022-10-11T18:53:39.994Z,7.20
2022-10-11T18:56:23.922Z,8.23
2022-10-11T18:58:54.499Z,14.23
2022-10-11T19:04:20.067Z,16.55
2022-10-11T19:06:52.646Z,7.78
2022-10-11T19:09:32.284Z,7.13
2022-10-11T19:12:07.738Z,6.25
2022-10-11T19:14:36.328Z,5.80
2022-10-11T19:17:14.431Z,6.50
2022-10-11T19:19:45.674Z,7.55
2022-10-11T19:22:16.053Z,7.30
2022-10-11T19:24:45.413Z,8.05
2022-10-11T19:27:14.852Z,7.43
2022-10-11T19:29:45.714Z,6.35
2022-10-11T19:32:22.251Z,6.20
2022-10-11T19:34:56.361Z,8.50
2022-10-11T19:37:54.850Z,7.63
2022-10-11T19:40:23.511Z,6.95
2022-10-11T19:42:55.457Z,6.65
2022-10-11T19:45:26.215Z,5.88
2022-10-11T19:48:05.390Z,5.97
2022-10-11T19:50:33.029Z,7.15
2022-10-11T19:53:02.076Z,7.40
2022-10-11T19:55:45.669Z,7.13
2022-10-11T19:58:16.999Z,7.90
2022-10-11T20:00:48.618Z,7.97
2022-10-11T20:03:17.862Z,7.22
2022-10-11T20:05:49.842Z,7.35
2022-10-11T20:08:17.612Z,7.18
2022-10-11T20:10:48.212Z,8.70
2022-10-11T20:13:17.104Z,8.27
2022-10-11T20:15:44.989Z,8.00
2022-10-11T20:18:37.512Z,6.97
2022-10-11T20:21:12.454Z,8.95
2022-10-11T20:23:45.117Z,8.82
2022-10-11T20:26:25.138Z,10.27
2022-10-11T20:28:57.471Z,9.70
2022-10-11T20:31:39.766Z,8.95
2022-10-11T20:34:38.868Z,10.40
2022-10-11T20:37:24.383Z,9.20
2022-10-11T20:39:56.346Z,9.63
2022-10-11T20:42:28.923Z,9.27
2022-10-11T20:44:59.431Z,9.88
2022-10-11T20:47:30.944Z,9.65
2022-10-11T20:49:58.839Z,12.25
2022-10-11T20:52:31.727Z,12.38
2022-10-11T20:55:03.338Z,10.73
2022-10-11T20:57:37.997Z,10.90
2022-10-11T21:00:14.579Z,10.63
2022-10-11T21:02:44.766Z,10.13
2022-10-11T21:05:14.383Z,11.32
2022-10-11T21:07:41.689Z,10.13
2022-10-11T21:10:14.937Z,12.23
2022-10-11T21:12:44.465Z,10.55
2022-10-11T21:15:16.814Z,10.80
2022-10-11T21:17:46.582Z,10.18
2022-10-11T21:20:43.021Z,10.40
2022-10-11T21:23:16.233Z,10.70
2022-10-11T21:25:47.086Z,10.77
2022-10-11T21:28:16.570Z,11.70
2022-10-11T21:30:44.962Z,10.23
2022-10-11T21:33:14.261Z,10.55
2022-10-11T21:35:45.039Z,10.90
2022-10-11T21:38:12.858Z,11.10
2022-10-11T21:40:41.836Z,11.18
2022-10-11T21:43:11.149Z,10.25
2022-10-11T21:45:38.904Z,10.70
2022-10-11T21:48:10.135Z,10.73
2022-10-11T21:50:41.720Z,11.00
2022-10-11T21:53:13.169Z,10.02
2022-10-11T21:55:42.572Z,10.68
2022-10-11T21:58:14.560Z,12.02
2022-10-11T22:00:41.810Z,10.95
2022-10-11T22:03:13.057Z,10.35
2022-10-11T22:05:46.589Z,10.63
2022-10-11T22:08:15.522Z,11.50
2022-10-11T22:10:46.226Z,13.32
2022-10-11T22:13:13.767Z,11.23
2022-10-11T22:15:45.590Z,12.07
2022-10-11T22:18:12.919Z,11.30
2022-10-11T22:23:24.432Z,11.40
2022-10-11T22:25:53.210Z,10.13
2022-10-11T22:28:35.278Z,11.98
2022-10-11T22:31:07.843Z,11.23
2022-10-11T22:33:37.901Z,10.95
2022-10-11T22:36:16.443Z,12.82
2022-10-11T22:38:53.150Z,11.25
2022-10-11T22:41:22.820Z,12.20
2022-10-11T22:43:54.751Z,12.57
2022-10-11T22:46:22.181Z,11.85
2022-10-11T22:51:32.690Z,13.18
2022-10-11T22:54:01.527Z,14.23
2022-10-11T22:56:29.869Z,13.82
2022-10-11T22:59:00.416Z,11.68
2022-10-11T23:01:32.926Z,13.40
2022-10-11T23:04:05.916Z,12.88
2022-10-11T23:06:35.292Z,12.65
2022-10-11T23:09:05.026Z,12.32
2022-10-11T23:14:15.069Z,13.60
2022-10-11T23:16:42.466Z,12.60
2022-10-11T23:19:14.805Z,14.00
2022-10-11T23:21:49.432Z,13.68
2022-10-11T23:24:18.771Z,13.73
2022-10-11T23:26:47.037Z,13.65
2022-10-11T23:29:23.137Z,12.65
2022-10-11T23:31:54.470Z,12.93
2022-10-11T23:34:27.048Z,13.43
2022-10-11T23:36:57.958Z,13.52
2022-10-11T23:39:29.787Z,13.85
2022-10-11T23:41:57.688Z,12.25
2022-10-11T23:44:26.531Z,14.02
2022-10-11T23:46:58.226Z,13.10
2022-10-11T23:49:26.069Z,12.27
2022-10-11T23:51:55.366Z,12.38
2022-10-11T23:54:25.876Z,14.50
2022-10-11T23:56:55.836Z,15.30
2022-10-11T23:59:27.497Z,14.25
